Time;durP1;ratioP1;P1;durP2;ratioP2;P2;SDS_P1;SDS_P2;PMS_P1;PMS_P2;Temp;Humidity;BMP_temperature;BMP_pressure;BME280_temperature;BME280_humidity;BME280_pressure;Samples;Min_cycle;Max_cycle;Signal;HPM_P1;HPM_P2
2021/11/29 00:00:54;;;;;;;17.60;14.82;;;2.10;99.90;;;;;;2680498;28;20231;-66
2021/11/29 00:02:16;;;;;;;17.42;14.57;;;2.10;99.90;;;;;;2680804;28;20614;-66
2021/11/29 00:03:35;;;;;;;19.85;15.45;;;2.10;99.90;;;;;;2681200;28;20209;-66
2021/11/29 00:04:54;;;;;;;20.10;15.38;;;2.10;99.90;;;;;;2681029;28;20224;-66
2021/11/29 00:06:13;;;;;;;19.77;15.45;;;2.10;99.90;;;;;;2680736;28;20682;-66
2021/11/29 00:07:31;;;;;;;21.13;15.27;;;2.10;99.90;;;;;;2681123;28;20263;-66
2021/11/29 00:08:50;;;;;;;18.77;14.90;;;2.10;99.90;;;;;;2683206;28;20317;-66
2021/11/29 00:10:09;;;;;;;19.02;15.82;;;2.10;99.90;;;;;;2687313;28;20877;-66
2021/11/29 00:11:28;;;;;;;18.15;14.98;;;2.10;99.90;;;;;;2683121;28;20274;-66
2021/11/29 00:12:46;;;;;;;18.27;14.80;;;2.10;99.90;;;;;;2691567;28;20215;-66
2021/11/29 00:14:05;;;;;;;20.10;16.08;;;2.10;99.90;;;;;;2680167;28;20205;-66
2021/11/29 00:15:26;;;;;;;23.33;15.52;;;2.10;99.90;;;;;;2680651;28;20725;-66
2021/11/29 00:16:45;;;;;;;19.15;15.52;;;2.10;99.90;;;;;;2680717;28;20648;-66
2021/11/29 00:18:03;;;;;;;19.75;15.40;;;2.10;99.90;;;;;;2681318;28;20207;-66
2021/11/29 00:19:22;;;;;;;18.52;14.85;;;2.10;99.90;;;;;;2681168;28;20588;-66
2021/11/29 00:20:43;;;;;;;21.58;16.35;;;2.10;99.90;;;;;;2680349;28;20306;-66
2021/11/29 00:22:02;;;;;;;20.15;15.45;;;2.10;99.90;;;;;;2681079;28;20300;-66
2021/11/29 00:23:21;;;;;;;20.75;16.23;;;2.10;99.90;;;;;;2681004;28;20259;-66
2021/11/29 00:24:40;;;;;;;21.33;16.25;;;2.10;99.90;;;;;;2680817;28;20313;-67
2021/11/29 00:25:59;;;;;;;18.38;15.13;;;2.10;99.90;;;;;;2680892;28;20289;-66
2021/11/29 00:27:17;;;;;;;17.73;14.43;;;2.10;99.90;;;;;;2680977;28;20212;-66
2021/11/29 00:28:36;;;;;;;18.52;14.93;;;2.10;99.90;;;;;;2670473;28;20213;-67
2021/11/29 00:29:53;;;;;;;19.75;15.30;;;2.10;99.90;;;;;;2675250;28;20241;-66
2021/11/29 00:31:13;;;;;;;20.27;15.47;;;2.10;99.90;;;;;;2681015;28;20694;-67
2021/11/29 00:32:32;;;;;;;16.67;14.45;;;2.10;99.90;;;;;;2680888;28;20488;-67
2021/11/29 00:33:50;;;;;;;18.30;14.52;;;2.10;99.90;;;;;;2677742;28;20205;-67
2021/11/29 00:35:10;;;;;;;19.25;15.73;;;2.10;99.90;;;;;;2677834;28;20215;-67
2021/11/29 00:36:28;;;;;;;17.58;13.52;;;2.10;99.90;;;;;;2672655;28;20197;-67
2021/11/29 00:37:47;;;;;;;17.90;14.50;;;2.00;99.90;;;;;;2680720;28;20219;-67
2021/11/29 00:39:06;;;;;;;15.48;13.00;;;2.00;99.90;;;;;;2681025;28;20237;-66
2021/11/29 00:40:25;;;;;;;18.38;14.65;;;2.00;99.90;;;;;;2679391;28;20241;-66
2021/11/29 00:41:45;;;;;;;18.20;14.88;;;2.00;99.90;;;;;;2680766;28;20209;-67
2021/11/29 00:43:04;;;;;;;17.25;14.50;;;2.00;99.90;;;;;;2681070;28;20248;-67
2021/11/29 00:44:23;;;;;;;18.20;14.98;;;1.90;99.90;;;;;;2680341;28;20201;-66
2021/11/29 00:45:41;;;;;;;16.15;13.63;;;1.90;99.90;;;;;;2678043;28;20216;-67
2021/11/29 00:46:59;;;;;;;16.02;13.52;;;1.90;99.90;;;;;;2680875;28;20210;-67
2021/11/29 00:48:18;;;;;;;16.98;13.65;;;1.90;99.90;;;;;;2672471;28;20229;-66
2021/11/29 00:49:37;;;;;;;17.05;13.65;;;1.90;99.90;;;;;;2680606;28;20319;-66
2021/11/29 00:50:56;;;;;;;18.92;13.93;;;1.90;99.90;;;;;;2680381;28;20551;-66
2021/11/29 00:52:13;;;;;;;17.48;13.45;;;1.90;99.90;;;;;;2680377;28;20317;-67
2021/11/29 00:53:32;;;;;;;18.17;13.60;;;1.90;99.90;;;;;;2680904;28;20216;-66
2021/11/29 00:54:52;;;;;;;19.30;14.77;;;1.90;99.90;;;;;;2680701;28;20876;-66
2021/11/29 00:56:11;;;;;;;18.00;14.25;;;1.80;99.90;;;;;;2680533;28;20198;-66
2021/11/29 00:57:28;;;;;;;20.98;16.23;;;1.80;99.90;;;;;;2680712;28;20210;-66
2021/11/29 00:58:47;;;;;;;24.00;17.73;;;1.90;99.90;;;;;;2680234;28;20262;-66
2021/11/29 01:00:11;;;;;;;21.70;16.48;;;1.90;99.90;;;;;;2679613;28;20206;-66
2021/11/29 01:01:30;;;;;;;20.17;15.32;;;2.00;99.90;;;;;;2677300;28;20209;-66
2021/11/29 01:02:49;;;;;;;20.02;15.43;;;1.90;99.90;;;;;;2680295;28;20213;-66
2021/11/29 01:04:07;;;;;;;22.17;16.45;;;1.90;99.90;;;;;;2673152;28;20202;-66
2021/11/29 01:05:26;;;;;;;25.00;17.37;;;1.90;99.90;;;;;;2670267;28;20213;-66
2021/11/29 01:06:44;;;;;;;20.27;16.42;;;1.90;99.90;;;;;;2670064;28;20219;-66
2021/11/29 01:08:03;;;;;;;21.80;16.77;;;1.90;99.90;;;;;;2669960;28;20871;-66
2021/11/29 01:09:21;;;;;;;22.08;16.48;;;1.90;99.90;;;;;;2683460;28;20496;-66
2021/11/29 01:10:39;;;;;;;20.60;17.17;;;1.90;99.90;;;;;;2686957;28;20239;-66
2021/11/29 01:11:58;;;;;;;22.77;15.15;;;1.90;99.90;;;;;;2684388;28;20761;-66
2021/11/29 01:13:16;;;;;;;21.17;16.33;;;2.00;99.90;;;;;;2680232;28;20263;-66
2021/11/29 01:14:35;;;;;;;25.48;17.92;;;1.90;99.90;;;;;;2680574;28;20299;-66
2021/11/29 01:15:54;;;;;;;23.15;17.13;;;1.90;99.90;;;;;;2680260;28;20275;-66
2021/11/29 01:17:13;;;;;;;25.27;18.15;;;1.90;99.90;;;;;;2680278;28;20263;-66
2021/11/29 01:18:31;;;;;;;26.77;18.70;;;1.90;99.90;;;;;;2680743;28;20271;-66
2021/11/29 01:19:49;;;;;;;23.92;18.50;;;2.00;99.90;;;;;;2680105;28;20221;-66
2021/11/29 01:21:08;;;;;;;27.17;19.33;;;1.90;99.90;;;;;;2671651;28;20218;-66
2021/11/29 01:22:27;;;;;;;24.48;18.58;;;1.90;99.90;;;;;;2669764;28;20518;-66
2021/11/29 01:23:46;;;;;;;23.65;18.55;;;1.90;99.90;;;;;;2670156;28;20210;-66
2021/11/29 01:25:05;;;;;;;25.10;18.92;;;1.90;99.90;;;;;;2670026;28;20202;-66
2021/11/29 01:26:24;;;;;;;25.60;19.27;;;1.90;99.90;;;;;;2669974;28;21476;-66
2021/11/29 01:27:43;;;;;;;25.23;20.20;;;2.00;99.90;;;;;;2678282;28;20203;-66
2021/11/29 01:29:00;;;;;;;27.35;21.35;;;2.00;99.90;;;;;;2680388;28;20787;-66
2021/11/29 01:30:19;;;;;;;27.37;19.73;;;2.00;99.90;;;;;;2679660;28;20209;-66
2021/11/29 01:31:38;;;;;;;27.52;19.90;;;2.00;99.90;;;;;;2680254;28;20953;-66
2021/11/29 01:32:57;;;;;;;28.58;20.85;;;2.00;99.90;;;;;;2679876;28;20209;-66
2021/11/29 01:34:16;;;;;;;29.17;20.27;;;2.00;99.90;;;;;;2673980;28;20653;-66
2021/11/29 01:35:34;;;;;;;25.75;19.95;;;2.00;99.90;;;;;;2669146;28;20263;-66
2021/11/29 01:36:53;;;;;;;24.42;18.35;;;2.00;99.90;;;;;;2674488;28;20205;-66
2021/11/29 01:38:11;;;;;;;25.08;19.67;;;2.00;99.90;;;;;;2680233;28;20708;-66
2021/11/29 01:39:31;;;;;;;27.53;20.97;;;2.00;99.90;;;;;;2680286;28;20209;-66
2021/11/29 01:40:49;;;;;;;28.98;20.15;;;2.00;99.90;;;;;;2678638;28;20545;-66
2021/11/29 01:42:09;;;;;;;27.02;20.58;;;1.90;99.90;;;;;;2680421;28;20464;-66
2021/11/29 01:43:28;;;;;;;26.77;19.55;;;2.00;99.90;;;;;;2680128;28;20651;-66
2021/11/29 01:44:46;;;;;;;22.83;19.08;;;1.90;99.90;;;;;;2680264;28;20221;-66
2021/11/29 01:46:05;;;;;;;27.87;21.23;;;1.90;99.90;;;;;;2679914;28;20209;-66
2021/11/29 01:47:23;;;;;;;28.50;20.60;;;1.90;99.90;;;;;;2679106;28;20468;-66
2021/11/29 01:48:42;;;;;;;28.58;21.27;;;2.00;99.90;;;;;;2673163;28;20194;-66
2021/11/29 01:49:59;;;;;;;28.33;20.15;;;2.00;99.90;;;;;;2679450;28;20237;-66
2021/11/29 01:51:18;;;;;;;26.83;20.85;;;2.00;99.90;;;;;;2679989;28;20254;-66
2021/11/29 01:52:36;;;;;;;27.08;19.67;;;2.00;99.90;;;;;;2679994;28;20292;-66
2021/11/29 01:53:55;;;;;;;29.20;20.97;;;1.90;99.90;;;;;;2679751;28;20575;-66
2021/11/29 01:55:13;;;;;;;27.02;19.70;;;1.90;99.90;;;;;;2679972;28;20570;-66
2021/11/29 01:56:32;;;;;;;24.70;20.00;;;1.90;99.90;;;;;;2679182;28;20209;-66
2021/11/29 01:57:50;;;;;;;29.83;22.00;;;2.00;99.90;;;;;;2679664;28;20549;-66
2021/11/29 01:59:09;;;;;;;24.37;19.40;;;2.00;99.90;;;;;;2680244;28;20302;-66
2021/11/29 02:00:29;;;;;;;20.88;17.73;;;1.90;99.90;;;;;;2679300;28;20544;-66
2021/11/29 02:01:48;;;;;;;27.02;20.08;;;1.90;99.90;;;;;;2678641;28;20201;-66
2021/11/29 02:03:06;;;;;;;27.67;20.27;;;1.90;99.90;;;;;;2679887;28;20201;-66
2021/11/29 02:04:25;;;;;;;25.85;20.42;;;2.00;99.90;;;;;;2679852;28;20268;-66
2021/11/29 02:05:44;;;;;;;28.88;20.67;;;2.00;99.90;;;;;;2680209;28;20624;-66
2021/11/29 02:07:03;;;;;;;26.83;20.38;;;2.00;99.90;;;;;;2679954;28;20209;-66
2021/11/29 02:08:21;;;;;;;27.25;19.92;;;2.00;99.90;;;;;;2673852;28;20250;-65
2021/11/29 02:09:40;;;;;;;30.00;21.60;;;2.00;99.90;;;;;;2681284;28;20706;-66
2021/11/29 02:10:59;;;;;;;28.40;20.38;;;2.00;99.90;;;;;;2685058;28;20205;-65
2021/11/29 02:12:18;;;;;;;28.63;19.75;;;2.00;99.90;;;;;;2680745;28;20198;-65
2021/11/29 02:13:37;;;;;;;29.38;21.23;;;2.00;99.90;;;;;;2679202;28;20292;-66
2021/11/29 02:14:56;;;;;;;31.00;21.00;;;2.00;99.90;;;;;;2678298;28;20210;-65
2021/11/29 02:16:15;;;;;;;28.77;21.65;;;2.00;99.90;;;;;;2679748;28;20206;-66
2021/11/29 02:17:33;;;;;;;28.95;21.00;;;2.00;99.90;;;;;;2679920;28;20209;-66
2021/11/29 02:18:52;;;;;;;30.23;21.13;;;2.00;99.90;;;;;;2680028;28;20205;-65
2021/11/29 02:20:12;;;;;;;28.75;21.15;;;2.00;99.90;;;;;;2678658;28;20201;-66
2021/11/29 02:21:32;;;;;;;30.63;22.58;;;2.00;99.90;;;;;;2679803;28;20322;-66
2021/11/29 02:22:51;;;;;;;27.55;20.98;;;2.00;99.90;;;;;;2679850;28;20282;-66
2021/11/29 02:24:10;;;;;;;31.98;20.33;;;2.00;99.90;;;;;;2679749;28;20239;-66
2021/11/29 02:25:28;;;;;;;31.13;21.67;;;2.00;99.90;;;;;;2679643;28;20213;-66
2021/11/29 02:26:47;;;;;;;28.65;21.15;;;1.90;99.90;;;;;;2678363;28;20209;-66
2021/11/29 02:28:05;;;;;;;29.52;21.70;;;1.90;99.90;;;;;;2679351;28;20205;-66
2021/11/29 02:29:23;;;;;;;33.85;23.83;;;2.00;99.90;;;;;;2679655;28;20221;-66
2021/11/29 02:30:43;;;;;;;32.97;22.63;;;1.90;99.90;;;;;;2679142;28;20292;-66
2021/11/29 02:32:02;;;;;;;27.30;20.80;;;2.00;99.90;;;;;;2679867;28;20852;-66
2021/11/29 02:33:19;;;;;;;29.52;21.40;;;2.00;99.90;;;;;;2679753;28;20228;-66
2021/11/29 02:34:38;;;;;;;28.43;21.53;;;2.00;99.90;;;;;;2673404;28;20212;-66
2021/11/29 02:35:57;;;;;;;30.30;21.70;;;2.00;99.90;;;;;;2674000;28;20515;-66
2021/11/29 02:37:16;;;;;;;29.52;21.95;;;2.00;99.90;;;;;;2676925;28;20629;-65
2021/11/29 02:38:35;;;;;;;29.77;20.70;;;2.00;99.90;;;;;;2679231;28;20358;-66
2021/11/29 02:39:53;;;;;;;29.10;21.00;;;1.90;99.90;;;;;;2678775;28;20730;-65
2021/11/29 02:41:12;;;;;;;30.27;22.30;;;1.90;99.90;;;;;;2679075;28;20552;-65
2021/11/29 02:42:31;;;;;;;28.58;21.95;;;1.90;99.90;;;;;;2679387;28;20220;-66
2021/11/29 02:43:49;;;;;;;32.00;21.35;;;1.90;99.90;;;;;;2679607;28;20197;-65
2021/11/29 02:45:08;;;;;;;30.52;21.83;;;1.90;99.90;;;;;;2679753;28;20201;-66
2021/11/29 02:46:26;;;;;;;27.75;21.42;;;1.90;99.90;;;;;;2679419;28;20213;-66
2021/11/29 02:47:45;;;;;;;32.83;22.77;;;2.00;99.90;;;;;;2675533;28;20194;-66
2021/11/29 02:49:05;;;;;;;31.33;22.77;;;2.00;99.90;;;;;;2675395;28;20823;-66
2021/11/29 02:50:24;;;;;;;31.52;21.60;;;2.00;99.90;;;;;;2678657;28;20312;-65
2021/11/29 02:51:49;;;;;;;31.02;20.92;;;2.00;99.90;;;;;;2679608;28;20202;-66
2021/11/29 02:53:12;;;;;;;29.65;21.48;;;2.00;99.90;;;;;;2679754;28;20194;-66
2021/11/29 02:54:33;;;;;;;26.40;20.23;;;2.00;99.90;;;;;;2678969;28;20717;-66
2021/11/29 02:55:52;;;;;;;30.90;21.05;;;2.10;99.90;;;;;;2679178;28;20236;-66
2021/11/29 02:57:17;;;;;;;32.05;22.52;;;2.10;99.90;;;;;;2678810;28;20209;-66
2021/11/29 02:58:39;;;;;;;30.23;21.30;;;2.00;99.90;;;;;;2679339;28;20194;-66
2021/11/29 02:59:58;;;;;;;33.08;22.60;;;2.00;99.90;;;;;;2678134;28;20198;-66
2021/11/29 03:01:17;;;;;;;32.35;21.73;;;2.10;99.90;;;;;;2677626;28;20206;-66
2021/11/29 03:02:36;;;;;;;33.65;23.67;;;2.10;99.90;;;;;;2679521;28;20213;-65
2021/11/29 03:03:54;;;;;;;29.95;22.33;;;2.00;99.90;;;;;;2670843;28;21624;-65
2021/11/29 03:05:13;;;;;;;33.95;23.38;;;2.00;99.90;;;;;;2679280;28;20746;-66
2021/11/29 03:06:30;;;;;;;31.98;23.20;;;2.00;99.90;;;;;;2678873;28;20205;-66
2021/11/29 03:07:49;;;;;;;35.77;23.50;;;2.10;99.90;;;;;;2679514;28;20233;-66
2021/11/29 03:09:08;;;;;;;34.22;23.55;;;2.00;99.90;;;;;;2680818;28;20482;-66
2021/11/29 03:10:27;;;;;;;34.45;24.48;;;2.00;99.90;;;;;;2683106;28;20349;-66
2021/11/29 03:11:46;;;;;;;32.30;24.50;;;2.00;99.90;;;;;;2682446;28;20262;-66
2021/11/29 03:13:05;;;;;;;32.63;23.25;;;2.00;99.90;;;;;;2684933;28;20213;-66
2021/11/29 03:14:23;;;;;;;33.90;24.60;;;2.00;99.90;;;;;;2672157;28;20194;-66
2021/11/29 03:15:47;;;;;;;34.15;24.60;;;2.00;99.90;;;;;;2672158;28;20198;-66
2021/11/29 03:17:07;;;;;;;32.00;21.88;;;2.00;99.90;;;;;;2679492;28;20205;-66
2021/11/29 03:18:32;;;;;;;34.92;25.30;;;2.00;99.90;;;;;;2679423;28;20267;-66
2021/11/29 03:19:51;;;;;;;34.75;25.20;;;2.00;99.90;;;;;;2678603;28;20202;-66
2021/11/29 03:21:09;;;;;;;32.15;23.92;;;2.00;99.90;;;;;;2670422;28;20573;-66
2021/11/29 03:22:28;;;;;;;31.10;22.95;;;2.00;99.90;;;;;;2674424;28;20222;-66
2021/11/29 03:23:48;;;;;;;32.75;24.17;;;2.00;99.90;;;;;;2678332;28;20216;-66
2021/11/29 03:25:09;;;;;;;37.28;26.40;;;2.00;99.90;;;;;;2679563;28;20316;-66
2021/11/29 03:26:28;;;;;;;33.13;24.92;;;2.10;99.90;;;;;;2678843;28;20205;-66
2021/11/29 03:27:47;;;;;;;36.22;25.80;;;2.00;99.90;;;;;;2678875;28;20586;-66
2021/11/29 03:29:10;;;;;;;37.80;25.90;;;2.00;99.90;;;;;;2679366;28;20255;-66
2021/11/29 03:30:29;;;;;;;41.38;26.77;;;2.00;99.90;;;;;;2678358;28;20233;-66
2021/11/29 03:31:51;;;;;;;42.35;28.45;;;2.00;99.90;;;;;;2679175;28;20633;-66
2021/11/29 03:33:10;;;;;;;43.10;27.02;;;2.00;99.90;;;;;;2679296;28;20614;-67
2021/11/29 03:34:29;;;;;;;43.88;29.65;;;2.00;99.90;;;;;;2672807;28;20210;-67
2021/11/29 03:35:48;;;;;;;35.35;26.23;;;2.00;99.90;;;;;;2674413;28;20205;-66
2021/11/29 03:37:07;;;;;;;35.60;26.80;;;2.00;99.90;;;;;;2675497;28;20791;-66
2021/11/29 03:38:25;;;;;;;40.17;26.98;;;1.90;99.90;;;;;;2678307;28;20215;-66
2021/11/29 03:39:44;;;;;;;40.58;27.67;;;1.90;99.90;;;;;;2678199;28;20522;-67
2021/11/29 03:41:03;;;;;;;36.97;27.52;;;2.00;99.90;;;;;;2679042;28;20205;-66
2021/11/29 03:42:22;;;;;;;43.20;27.00;;;1.90;99.90;;;;;;2678957;28;20293;-67
2021/11/29 03:43:41;;;;;;;38.22;27.88;;;1.90;99.90;;;;;;2678986;28;20205;-67
2021/11/29 03:45:01;;;;;;;37.67;26.30;;;1.90;99.90;;;;;;2679074;28;20312;-67
2021/11/29 03:46:19;;;;;;;43.08;28.38;;;1.90;99.90;;;;;;2678739;28;20201;-66
2021/11/29 03:47:38;;;;;;;35.35;26.83;;;1.90;99.90;;;;;;2676294;28;20194;-67
2021/11/29 03:48:56;;;;;;;35.33;25.92;;;1.90;99.90;;;;;;2678950;28;20255;-67
2021/11/29 03:50:15;;;;;;;36.70;27.40;;;1.90;99.90;;;;;;2677922;28;20237;-67
2021/11/29 03:51:33;;;;;;;36.53;26.23;;;1.90;99.90;;;;;;2678449;28;20460;-67
2021/11/29 03:52:51;;;;;;;37.20;26.57;;;1.90;99.90;;;;;;2678425;28;20266;-67
2021/11/29 03:54:10;;;;;;;33.30;25.70;;;1.90;99.90;;;;;;2678634;28;20448;-67
2021/11/29 03:55:28;;;;;;;35.65;26.73;;;2.00;99.90;;;;;;2679309;28;20210;-67
2021/11/29 03:56:48;;;;;;;38.97;28.13;;;1.90;99.90;;;;;;2679284;28;20561;-67
2021/11/29 03:58:07;;;;;;;40.85;28.42;;;1.90;99.90;;;;;;2679210;28;20932;-67
2021/11/29 03:59:25;;;;;;;36.55;28.10;;;2.00;99.90;;;;;;2679146;28;20209;-67
2021/11/29 04:00:44;;;;;;;37.33;27.20;;;2.00;99.90;;;;;;2678452;28;20254;-67
2021/11/29 04:02:02;;;;;;;35.80;27.40;;;2.00;99.90;;;;;;2677958;28;20209;-67
2021/11/29 04:03:21;;;;;;;34.42;25.15;;;2.00;99.90;;;;;;2678344;28;20538;-67
2021/11/29 04:04:40;;;;;;;33.65;25.98;;;2.00;99.90;;;;;;2678976;28;20766;-67
2021/11/29 04:05:58;;;;;;;35.08;25.95;;;2.00;99.90;;;;;;2678786;28;20208;-67
2021/11/29 04:07:17;;;;;;;35.60;25.08;;;2.00;99.90;;;;;;2678715;28;20978;-67
2021/11/29 04:08:36;;;;;;;36.00;25.55;;;2.00;99.90;;;;;;2680959;28;20210;-67
2021/11/29 04:09:55;;;;;;;33.47;25.63;;;2.00;99.90;;;;;;2679427;28;20690;-67
2021/11/29 04:11:14;;;;;;;34.42;23.98;;;2.00;99.90;;;;;;2686715;28;20845;-67
2021/11/29 04:12:32;;;;;;;36.10;27.48;;;2.00;99.90;;;;;;2678871;28;20197;-67
2021/11/29 04:13:51;;;;;;;35.95;25.40;;;2.00;99.90;;;;;;2669982;28;20217;-67
2021/11/29 04:15:11;;;;;;;33.90;25.77;;;2.00;99.90;;;;;;2676127;28;20214;-67
2021/11/29 04:16:28;;;;;;;39.20;27.25;;;2.00;99.90;;;;;;2678999;28;20259;-67
2021/11/29 04:17:47;;;;;;;35.70;25.20;;;2.00;99.90;;;;;;2678968;28;20206;-67
2021/11/29 04:19:05;;;;;;;34.17;25.58;;;2.00;99.90;;;;;;2676962;28;20456;-68
2021/11/29 04:20:24;;;;;;;33.73;26.67;;;1.90;99.90;;;;;;2677176;28;20201;-67
2021/11/29 04:21:43;;;;;;;32.83;24.65;;;1.90;99.90;;;;;;2670529;28;20441;-67
2021/11/29 04:23:02;;;;;;;32.58;23.90;;;1.90;99.90;;;;;;2676229;28;20216;-67
2021/11/29 04:24:23;;;;;;;32.78;25.38;;;1.90;99.90;;;;;;2678752;28;20199;-66
2021/11/29 04:25:47;;;;;;;29.52;22.35;;;1.90;99.90;;;;;;2678860;28;20217;-68
2021/11/29 04:27:06;;;;;;;33.53;23.40;;;1.80;99.90;;;;;;2678806;28;20209;-67
2021/11/29 04:28:25;;;;;;;32.83;23.70;;;1.90;99.90;;;;;;2678003;28;20301;-67
2021/11/29 04:29:46;;;;;;;36.35;24.15;;;1.80;99.90;;;;;;2678436;28;20611;-67
2021/11/29 04:31:04;;;;;;;35.78;24.73;;;1.80;99.90;;;;;;2678669;28;20667;-67
2021/11/29 04:32:22;;;;;;;36.20;25.80;;;1.80;99.90;;;;;;2679164;28;20194;-67
2021/11/29 04:33:41;;;;;;;34.78;25.38;;;1.80;99.90;;;;;;2677590;28;20456;-67
2021/11/29 04:35:00;;;;;;;35.30;24.30;;;1.80;99.90;;;;;;2674096;28;20203;-67
2021/11/29 04:36:19;;;;;;;34.20;24.30;;;1.80;99.90;;;;;;2671471;28;20202;-67
2021/11/29 04:37:38;;;;;;;34.83;24.63;;;1.80;99.90;;;;;;2678404;28;20203;-67
2021/11/29 04:38:55;;;;;;;35.53;24.67;;;1.80;99.90;;;;;;2680678;28;20970;-67
2021/11/29 04:40:15;;;;;;;33.77;23.40;;;1.80;99.90;;;;;;2679697;28;20202;-67
2021/11/29 04:41:34;;;;;;;32.97;23.48;;;1.80;99.90;;;;;;2680862;28;20247;-67
2021/11/29 04:42:52;;;;;;;33.42;23.02;;;1.80;99.90;;;;;;2680753;28;20241;-67
2021/11/29 04:44:12;;;;;;;35.10;25.00;;;1.90;99.90;;;;;;2680618;28;20206;-67
2021/11/29 04:45:31;;;;;;;38.05;24.90;;;1.90;99.90;;;;;;2680649;28;20482;-67
2021/11/29 04:46:49;;;;;;;39.80;26.73;;;1.80;99.90;;;;;;2680814;28;20201;-67
2021/11/29 04:48:08;;;;;;;33.35;24.77;;;1.90;99.90;;;;;;2673352;28;20202;-67
2021/11/29 04:49:27;;;;;;;32.85;23.77;;;1.90;99.90;;;;;;2680093;28;20769;-67
2021/11/29 04:50:45;;;;;;;34.95;26.58;;;1.90;99.90;;;;;;2679349;28;20244;-67
2021/11/29 04:52:05;;;;;;;38.53;26.08;;;1.90;99.90;;;;;;2680514;28;20709;-67
2021/11/29 04:53:23;;;;;;;33.40;24.70;;;1.90;99.90;;;;;;2680752;28;20826;-67
2021/11/29 04:54:42;;;;;;;33.35;24.08;;;1.90;99.90;;;;;;2680747;28;20462;-67
2021/11/29 04:56:01;;;;;;;33.45;24.85;;;1.90;99.90;;;;;;2680240;28;20218;-67
2021/11/29 04:57:22;;;;;;;35.95;25.20;;;1.90;99.90;;;;;;2680968;28;20295;-67
2021/11/29 04:58:40;;;;;;;30.02;21.95;;;1.90;99.90;;;;;;2680861;28;20214;-67
2021/11/29 04:59:59;;;;;;;38.25;24.55;;;1.90;99.90;;;;;;2679989;28;20300;-67
2021/11/29 05:01:18;;;;;;;34.03;24.10;;;2.00;99.90;;;;;;2678407;28;20202;-68
2021/11/29 05:02:36;;;;;;;35.05;25.42;;;2.00;99.90;;;;;;2680927;28;20287;-68
2021/11/29 05:03:55;;;;;;;33.30;24.55;;;2.00;99.90;;;;;;2681075;28;20205;-68
2021/11/29 05:05:14;;;;;;;37.33;25.95;;;2.00;99.90;;;;;;2680624;28;20205;-68
2021/11/29 05:06:36;;;;;;;32.92;24.50;;;2.00;99.90;;;;;;2680778;28;20214;-68
2021/11/29 05:07:55;;;;;;;31.02;22.33;;;2.00;99.90;;;;;;2681099;28;20202;-67
2021/11/29 05:09:15;;;;;;;34.67;24.92;;;2.00;99.90;;;;;;2686909;28;20247;-68
2021/11/29 05:10:34;;;;;;;36.80;23.17;;;2.00;99.90;;;;;;2684221;28;20716;-68
2021/11/29 05:11:53;;;;;;;35.42;24.90;;;2.00;99.90;;;;;;2686280;28;20304;-68
2021/11/29 05:13:12;;;;;;;33.88;23.35;;;2.00;99.90;;;;;;2677584;28;20276;-68
2021/11/29 05:14:31;;;;;;;33.13;22.00;;;2.00;99.90;;;;;;2673144;28;20214;-68
2021/11/29 05:15:49;;;;;;;38.13;25.40;;;2.00;99.90;;;;;;2680553;28;20291;-68
2021/11/29 05:17:07;;;;;;;31.02;23.85;;;1.90;99.90;;;;;;2680380;28;20359;-67
2021/11/29 05:18:26;;;;;;;36.28;24.05;;;1.90;99.90;;;;;;2680906;28;20224;-67
2021/11/29 05:19:46;;;;;;;32.63;22.98;;;1.90;99.90;;;;;;2679006;28;20296;-68
2021/11/29 05:21:04;;;;;;;34.40;24.70;;;1.90;99.90;;;;;;2680402;28;20208;-67
2021/11/29 05:22:22;;;;;;;35.08;23.83;;;1.90;99.90;;;;;;2680492;28;20452;-67
2021/11/29 05:23:41;;;;;;;31.27;23.43;;;2.00;99.90;;;;;;2679998;28;20491;-68
2021/11/29 05:25:00;;;;;;;33.33;22.20;;;2.00;99.90;;;;;;2680152;28;20526;-68
2021/11/29 05:26:20;;;;;;;30.30;22.10;;;2.00;99.90;;;;;;2675625;28;20197;-68
2021/11/29 05:27:39;;;;;;;29.25;22.38;;;2.00;99.90;;;;;;2680474;28;20259;-67
2021/11/29 05:28:59;;;;;;;29.60;21.75;;;2.00;99.90;;;;;;2679845;28;20296;-67
2021/11/29 05:30:18;;;;;;;34.28;22.52;;;2.00;99.90;;;;;;2680253;28;20315;-67
2021/11/29 05:31:37;;;;;;;27.25;20.58;;;1.90;99.90;;;;;;2680525;28;20259;-67
2021/11/29 05:32:55;;;;;;;30.70;21.33;;;1.90;99.90;;;;;;2680143;28;20222;-68
2021/11/29 05:34:14;;;;;;;29.30;22.03;;;2.00;99.90;;;;;;2674045;28;20240;-68
2021/11/29 05:35:32;;;;;;;29.88;21.65;;;2.00;99.90;;;;;;2677899;28;20445;-68
2021/11/29 05:36:51;;;;;;;32.85;20.90;;;2.00;99.90;;;;;;2676485;28;20194;-67
2021/11/29 05:38:09;;;;;;;32.03;21.88;;;2.00;99.90;;;;;;2680035;28;20204;-68
2021/11/29 05:39:28;;;;;;;31.80;22.58;;;2.10;99.90;;;;;;2680353;28;20213;-68
2021/11/29 05:40:48;;;;;;;30.23;20.95;;;2.10;99.90;;;;;;2679645;28;20209;-68
2021/11/29 05:42:06;;;;;;;29.75;21.15;;;2.10;99.90;;;;;;2679475;28;20217;-68
2021/11/29 05:43:25;;;;;;;32.17;22.08;;;2.10;99.90;;;;;;2679458;28;20233;-68
2021/11/29 05:44:43;;;;;;;33.50;21.60;;;2.00;99.90;;;;;;2680148;28;20206;-68
2021/11/29 05:46:01;;;;;;;29.00;20.73;;;2.00;99.90;;;;;;2679629;28;20241;-68
2021/11/29 05:47:21;;;;;;;31.30;21.77;;;2.00;99.90;;;;;;2679074;28;20202;-67
2021/11/29 05:48:39;;;;;;;31.45;20.90;;;2.00;99.90;;;;;;2669851;28;20453;-69
2021/11/29 05:49:58;;;;;;;34.45;22.90;;;1.90;99.90;;;;;;2670113;28;20206;-68
2021/11/29 05:51:18;;;;;;;30.35;21.15;;;1.90;99.90;;;;;;2679643;28;20221;-67
2021/11/29 05:52:38;;;;;;;31.67;21.00;;;1.90;99.90;;;;;;2677049;28;20217;-68
2021/11/29 05:53:57;;;;;;;24.92;19.38;;;1.90;99.90;;;;;;2679591;28;20289;-68
2021/11/29 05:55:16;;;;;;;30.92;21.27;;;2.00;99.90;;;;;;2680130;28;20212;-67
2021/11/29 05:56:35;;;;;;;31.35;20.98;;;2.10;99.90;;;;;;2680034;28;20267;-68
2021/11/29 05:57:54;;;;;;;27.17;20.00;;;2.00;99.90;;;;;;2680615;28;20201;-68
2021/11/29 05:59:12;;;;;;;33.08;22.45;;;2.10;99.90;;;;;;2679532;28;20210;-67
2021/11/29 06:00:31;;;;;;;28.92;19.50;;;2.10;99.90;;;;;;2672595;28;20989;-67
2021/11/29 06:01:50;;;;;;;33.78;22.40;;;2.00;99.90;;;;;;2678431;28;20227;-67
2021/11/29 06:03:09;;;;;;;33.05;20.75;;;2.00;99.90;;;;;;2671725;28;20267;-67
2021/11/29 06:04:28;;;;;;;28.40;20.73;;;2.00;99.90;;;;;;2669662;28;20202;-67
2021/11/29 06:05:47;;;;;;;29.50;21.20;;;2.00;99.90;;;;;;2669538;28;20293;-67
2021/11/29 06:07:06;;;;;;;31.30;21.20;;;2.00;99.90;;;;;;2676447;28;20259;-67
2021/11/29 06:08:25;;;;;;;32.70;18.90;;;2.00;99.90;;;;;;2677687;28;20279;-67
2021/11/29 06:09:43;;;;;;;30.13;21.98;;;2.00;99.90;;;;;;2680356;28;20193;-67
2021/11/29 06:11:02;;;;;;;29.10;20.63;;;2.00;99.90;;;;;;2685663;28;20232;-67
2021/11/29 06:12:21;;;;;;;28.23;19.20;;;2.00;99.90;;;;;;2690316;28;20205;-67
2021/11/29 06:13:42;;;;;;;28.73;20.08;;;2.00;99.90;;;;;;2683088;28;20296;-67
2021/11/29 06:15:00;;;;;;;33.63;21.85;;;2.00;99.90;;;;;;2680002;28;20206;-67
2021/11/29 06:16:19;;;;;;;26.80;19.95;;;2.00;99.90;;;;;;2679568;28;20204;-68
2021/11/29 06:17:37;;;;;;;31.42;21.75;;;1.90;99.90;;;;;;2679436;28;20210;-67
2021/11/29 06:18:56;;;;;;;28.02;21.52;;;1.90;99.90;;;;;;2679501;28;20659;-67
2021/11/29 06:20:19;;;;;;;38.50;22.50;;;1.90;99.90;;;;;;2679068;28;20209;-68
2021/11/29 06:21:38;;;;;;;27.10;19.58;;;1.90;99.90;;;;;;2679461;28;20554;-68
2021/11/29 06:22:59;;;;;;;29.58;21.63;;;1.90;99.90;;;;;;2679739;28;20210;-67
2021/11/29 06:24:18;;;;;;;29.08;21.73;;;1.90;99.90;;;;;;2679676;28;20667;-67
2021/11/29 06:25:38;;;;;;;32.33;21.45;;;1.90;99.90;;;;;;2679430;28;20224;-67
2021/11/29 06:26:57;;;;;;;32.05;21.75;;;1.90;99.90;;;;;;2679686;28;20209;-67
2021/11/29 06:28:16;;;;;;;27.05;19.77;;;2.00;99.90;;;;;;2677015;28;20217;-67
2021/11/29 06:29:34;;;;;;;26.65;19.58;;;1.90;99.90;;;;;;2671301;28;20210;-67
2021/11/29 06:30:53;;;;;;;27.23;19.75;;;1.90;99.90;;;;;;2673894;28;20221;-67
2021/11/29 06:32:12;;;;;;;28.30;20.73;;;1.90;99.90;;;;;;2673779;28;20205;-67
2021/11/29 06:33:31;;;;;;;28.17;19.98;;;1.90;99.90;;;;;;2677971;28;20206;-67
2021/11/29 06:34:50;;;;;;;27.13;18.55;;;1.90;99.90;;;;;;2675297;28;20197;-68
2021/11/29 06:36:09;;;;;;;26.10;20.83;;;1.90;99.90;;;;;;2677151;28;20218;-67
2021/11/29 06:37:28;;;;;;;27.88;20.30;;;1.90;99.90;;;;;;2669794;28;20233;-67
2021/11/29 06:38:48;;;;;;;26.65;19.42;;;1.90;99.90;;;;;;2669403;28;20291;-68
2021/11/29 06:40:08;;;;;;;24.67;18.55;;;1.90;99.90;;;;;;2668687;28;20209;-67
2021/11/29 06:41:27;;;;;;;31.08;20.33;;;2.00;99.90;;;;;;2668680;28;20271;-68
2021/11/29 06:42:46;;;;;;;27.27;18.48;;;2.00;99.90;;;;;;2668981;28;20236;-67
2021/11/29 06:44:05;;;;;;;24.75;18.65;;;1.90;99.90;;;;;;2675508;28;20614;-67
2021/11/29 06:45:24;;;;;;;25.00;18.27;;;1.90;99.90;;;;;;2679456;28;20198;-67